St Louis Regional Airport Alton,St Louis US
ICAO: KALN
IATA: ALN
Category: Medium
Scheduled Services: No

Elevation: 544 ft
TransAlt. 18000 ft.

Airport Communications:
APP/DEP:124.2
ATIS:128
AWOS 3:128
CLNC DEL:120.2
CTAF:126
GND:120.2
RDO:122.05
REGIONAL TWR:126
UNICOM:122.95

KALN Zoom In..

Runways:

(A) RW 11 length 8099 ft width 150 ft
---- / hdg 114

(B) RW 17 length 6500 ft width 100 ft
---- / hdg 174

(C) RW 29 length 8099 ft width 150 ft
ILS 108.50 / hdg 294

(D) RW 35 length 6500 ft width 100 ft
---- / hdg 354

Location; KALN
Day. 25 / Time. 11.47 Zulu
* Altimeter: 30.02
* Temperature: 08° c. 46.4°f.
* Wind from: 330° Speed 07 kn.
Dewpoint: 07° c.
Visibility: 10 Statute Miles.
Clouds: Broken 2000 ft.

KALN 251147Z 33007KT 10SM BKN200 08/07 A3002


Wind From 330°
Speed 07 kn.

  YouTube Music Video
 
jpsmedia.com for Web Design  worldairports.se 2018   terms of use